Time;durP1;ratioP1;P1;durP2;ratioP2;P2;SDS_P1;SDS_P2;PMS_P1;PMS_P2;Temp;Humidity;BMP_temperature;BMP_pressure;BME280_temperature;BME280_humidity;BME280_pressure;Samples;Min_cycle;Max_cycle;Signal;HPM_P1;HPM_P2
2021/04/11 00:02:05;;;;;;;;;;;;;;;1.19;54.73;101306.83;1803569;79;20288;-78
2021/04/11 00:04:33;;;;;;;;;;;;;;;1.13;55.04;101302.18;1777471;79;20228;-78
2021/04/11 00:07:00;;;;;;;;;;;;;;;1.11;55.46;101302.67;1785947;79;20528;-78
2021/04/11 00:09:28;;;;;;;;;;;;;;;1.08;55.53;101306.66;1794369;79;20239;-78
2021/04/11 00:11:55;;;;;;;;;;;;;;;1.08;55.69;101304.06;1799791;79;22102;-77
2021/04/11 00:14:22;;;;;;;;;;;;;;;1.05;55.89;101301.96;1803529;79;21086;-80
2021/04/11 00:16:51;;;;;;;;;;;;;;;1.04;56.02;101301.11;1795581;79;20248;-80
2021/04/11 00:19:20;;;;;;;;;;;;;;;1.07;55.60;101307.56;1806978;79;21689;-78
2021/04/11 00:21:47;;;;;;;;;;;;;;;1.15;55.27;101300.83;1772347;81;20250;-79
2021/04/11 00:24:15;;;;;;;;;;;;;;;1.21;55.04;101306.34;1780821;79;23104;-78
2021/04/11 00:26:42;;;;;;;;;;;;;;;1.24;55.03;101303.20;1764847;81;20375;-78
2021/04/11 00:29:11;;;;;;;;;;;;;;;1.24;54.89;101304.50;1784111;80;20212;-78
2021/04/11 00:31:38;;;;;;;;;;;;;;;1.24;54.95;101299.30;1781089;79;21058;-78
2021/04/11 00:34:05;;;;;;;;;;;;;;;1.23;55.04;101311.91;1784215;80;20223;-79
2021/04/11 00:36:32;;;;;;;;;;;;;;;1.21;55.01;101305.04;1784622;80;21358;-79
2021/04/11 00:39:00;;;;;;;;;;;;;;;1.15;55.16;101307.34;1783655;80;20308;-79
2021/04/11 00:41:33;;;;;;;;;;;;;;;1.06;55.45;101315.37;1778050;80;20347;-79
2021/04/11 00:44:01;;;;;;;;;;;;;;;0.97;55.76;101319.09;1784107;80;20707;-79
2021/04/11 00:46:41;;;;;;;;;;;;;;;0.88;56.19;101316.71;1784007;80;20381;-79
2021/04/11 00:49:20;;;;;;;;;;;;;;;0.84;56.42;101313.31;1783298;80;21818;-79
2021/04/11 00:51:49;;;;;;;;;;;;;;;0.82;56.37;101322.91;1776860;80;20228;-78
2021/04/11 00:54:17;;;;;;;;;;;;;;;0.78;56.41;101322.58;1722834;80;20225;-79
2021/04/11 00:56:44;;;;;;;;;;;;;;;0.75;56.48;101323.93;1778759;80;20703;-78
2021/04/11 00:59:11;;;;;;;;;;;;;;;0.74;56.37;101323.53;1773846;80;20514;-78
2021/04/11 01:01:39;;;;;;;;;;;;;;;0.73;56.22;101321.82;1785718;80;22344;-78
2021/04/11 01:04:10;;;;;;;;;;;;;;;0.72;56.43;101322.71;1775949;80;20309;-79
2021/04/11 01:06:40;;;;;;;;;;;;;;;0.73;56.42;101320.97;1792241;80;20233;-78
2021/04/11 01:09:19;;;;;;;;;;;;;;;0.73;56.41;101327.02;1749839;81;20702;-79
2021/04/11 01:11:48;;;;;;;;;;;;;;;0.73;56.52;101329.62;1769791;80;20233;-77
2021/04/11 01:14:16;;;;;;;;;;;;;;;0.74;56.27;101331.77;1770010;81;22546;-77
2021/04/11 01:16:44;;;;;;;;;;;;;;;0.73;56.17;101333.97;1769521;79;20376;-77
2021/04/11 01:19:18;;;;;;;;;;;;;;;0.70;56.28;101333.60;1775618;79;20225;-79
2021/04/11 01:22:07;;;;;;;;;;;;;;;0.69;56.41;101341.44;1781132;79;20768;-76
2021/04/11 01:24:52;;;;;;;;;;;;;;;0.70;56.50;101339.25;1891198;76;20250;-77
2021/04/11 01:27:31;;;;;;;;;;;;;;;0.68;56.40;101341.03;1830930;77;20213;-79
2021/04/11 01:29:59;;;;;;;;;;;;;;;0.69;56.43;101340.14;1825508;77;23008;-79
2021/04/11 01:32:27;;;;;;;;;;;;;;;0.72;56.36;101343.96;1839127;77;20367;-79
2021/04/11 01:34:55;;;;;;;;;;;;;;;0.70;56.35;101344.45;1822357;77;20270;-79
2021/04/11 01:37:23;;;;;;;;;;;;;;;0.68;56.31;101348.84;1802286;77;20211;-79
2021/04/11 01:39:52;;;;;;;;;;;;;;;0.65;56.38;101349.73;1809246;78;20215;-78
2021/04/11 01:42:21;;;;;;;;;;;;;;;0.63;56.44;101346.33;1832213;77;22048;-79
2021/04/11 01:44:49;;;;;;;;;;;;;;;0.63;56.70;101353.27;1777793;80;20671;-78
2021/04/11 01:47:17;;;;;;;;;;;;;;;0.61;56.54;101348.56;1756967;81;20310;-78
2021/04/11 01:49:45;;;;;;;;;;;;;;;0.62;56.47;101358.06;1779665;80;20658;-77
2021/04/11 01:52:16;;;;;;;;;;;;;;;0.62;56.41;101359.36;1759055;81;20526;-78
2021/04/11 01:54:44;;;;;;;;;;;;;;;0.63;56.24;101359.77;1736539;81;22514;-78
2021/04/11 01:57:19;;;;;;;;;;;;;;;0.64;56.40;101358.44;1761800;81;20365;-77
2021/04/11 01:59:47;;;;;;;;;;;;;;;0.70;55.86;101361.35;1771303;80;20212;-77
2021/04/11 02:02:16;;;;;;;;;;;;;;;0.77;55.61;101368.09;1760081;81;21249;-77
2021/04/11 02:04:45;;;;;;;;;;;;;;;0.80;55.38;101360.25;1764304;81;20245;-78
2021/04/11 02:07:13;;;;;;;;;;;;;;;0.81;55.21;101371.05;1764489;81;22980;-78
2021/04/11 02:09:46;;;;;;;;;;;;;;;0.78;55.13;101364.19;1762451;81;21372;-78
2021/04/11 02:12:29;;;;;;;;;;;;;;;0.76;55.18;101367.25;1763085;81;20213;-78
2021/04/11 02:14:58;;;;;;;;;;;;;;;0.75;55.27;101369.44;1763352;81;20265;-78
2021/04/11 02:17:25;;;;;;;;;;;;;;;0.77;55.27;101368.98;1764264;81;20224;-79
2021/04/11 02:19:53;;;;;;;;;;;;;;;0.79;55.17;101371.55;1764238;81;22554;-79
2021/04/11 02:22:24;;;;;;;;;;;;;;;0.81;55.25;101373.20;1759467;81;20271;-79
2021/04/11 02:24:51;;;;;;;;;;;;;;;0.85;54.97;101375.28;1726133;81;20439;-78
2021/04/11 02:27:19;;;;;;;;;;;;;;;0.86;54.70;101376.98;1738846;82;21525;-78
2021/04/11 02:29:47;;;;;;;;;;;;;;;0.86;54.57;101383.48;1717195;82;20303;-78
2021/04/11 02:32:15;;;;;;;;;;;;;;;0.84;54.61;101380.92;1720303;82;22021;-78
2021/04/11 02:34:45;;;;;;;;;;;;;;;0.79;54.66;101381.50;1730272;83;20248;-79
2021/04/11 02:37:24;;;;;;;;;;;;;;;0.73;54.95;101384.67;1725400;83;20226;-79
2021/04/11 02:39:54;;;;;;;;;;;;;;;0.68;55.12;101381.34;1731873;83;20260;-79
2021/04/11 02:42:25;;;;;;;;;;;;;;;0.65;55.18;101378.78;1731568;83;20293;-79
2021/04/11 02:45:10;;;;;;;;;;;;;;;0.63;55.44;101382.72;1871787;76;20268;-79
2021/04/11 02:47:39;;;;;;;;;;;;;;;0.51;55.78;101391.66;1813833;77;20209;-79
2021/04/11 02:50:07;;;;;;;;;;;;;;;0.42;56.18;101393.15;1845900;77;22961;-79
2021/04/11 02:52:42;;;;;;;;;;;;;;;0.35;56.17;101393.30;1844338;77;20306;-78
2021/04/11 02:55:10;;;;;;;;;;;;;;;0.29;56.38;101398.20;1826627;77;20243;-78
2021/04/11 02:57:38;;;;;;;;;;;;;;;0.22;56.41;101395.31;1828318;77;20394;-78
2021/04/11 03:00:09;;;;;;;;;;;;;;;0.17;56.60;101398.43;1829187;77;20237;-77
2021/04/11 03:02:37;;;;;;;;;;;;;;;0.09;56.91;101399.02;1824189;77;22120;-78
2021/04/11 03:05:07;;;;;;;;;;;;;;;0.02;57.03;101402.65;1824674;77;21246;-77
2021/04/11 03:07:42;;;;;;;;;;;;;;;-0.03;57.12;101399.68;1818047;77;20217;-77
2021/04/11 03:10:13;;;;;;;;;;;;;;;-0.08;57.25;101397.62;1816222;77;20977;-77
2021/04/11 03:12:41;;;;;;;;;;;;;;;-0.11;57.55;101403.30;1834604;77;20203;-77
2021/04/11 03:15:09;;;;;;;;;;;;;;;-0.14;57.87;101409.87;1829850;78;22124;-77
2021/04/11 03:17:37;;;;;;;;;;;;;;;-0.17;58.13;101411.23;1797360;78;20354;-77
2021/04/11 03:20:17;;;;;;;;;;;;;;;-0.18;58.23;101418.17;1820546;77;20502;-77
2021/04/11 03:22:49;;;;;;;;;;;;;;;-0.20;58.58;101418.61;1821190;77;20232;-76
2021/04/11 03:25:16;;;;;;;;;;;;;;;-0.21;58.60;101419.50;1826932;77;20255;-76
2021/04/11 03:28:00;;;;;;;;;;;;;;;-0.24;58.90;101422.61;1814129;78;21890;-77
2021/04/11 03:30:39;;;;;;;;;;;;;;;-0.26;58.94;101420.48;1816847;77;20527;-76
2021/04/11 03:33:10;;;;;;;;;;;;;;;-0.26;59.01;101422.64;1823652;77;20502;-76
2021/04/11 03:35:39;;;;;;;;;;;;;;;-0.26;58.92;101426.98;1825067;77;20974;-77
2021/04/11 03:38:07;;;;;;;;;;;;;;;-0.27;58.91;101431.31;1811200;77;20271;-76
2021/04/11 03:40:36;;;;;;;;;;;;;;;-0.28;59.03;101436.53;1828191;77;22078;-76
2021/04/11 03:43:11;;;;;;;;;;;;;;;-0.31;59.20;101434.83;1791895;78;20350;-77
2021/04/11 03:45:40;;;;;;;;;;;;;;;-0.34;59.36;101436.19;1824511;77;20231;-77
2021/04/11 03:48:11;;;;;;;;;;;;;;;-0.36;59.37;101444.45;1826851;77;20248;-76
2021/04/11 03:50:41;;;;;;;;;;;;;;;-0.36;59.38;101448.34;1826094;77;21083;-76
2021/04/11 03:53:19;;;;;;;;;;;;;;;-0.32;59.35;101446.09;1821332;77;23341;-76
2021/04/11 03:55:50;;;;;;;;;;;;;;;-0.26;59.36;101449.89;1824100;77;20364;-76
2021/04/11 03:58:26;;;;;;;;;;;;;;;-0.16;59.18;101451.44;1819788;77;20388;-76
2021/04/11 04:00:56;;;;;;;;;;;;;;;-0.06;58.92;101454.28;1827642;77;21073;-76
2021/04/11 04:03:26;;;;;;;;;;;;;;;0.06;58.65;101452.34;1824855;77;20167;-76
2021/04/11 04:05:54;;;;;;;;;;;;;;;0.14;58.59;101455.20;1805670;77;22498;-76
2021/04/11 04:08:22;;;;;;;;;;;;;;;0.22;58.45;101452.47;1827186;77;20377;-76
2021/04/11 04:11:13;;;;;;;;;;;;;;;0.30;58.35;101457.52;1826436;77;20434;-75
2021/04/11 04:14:02;;;;;;;;;;;;;;;0.37;58.12;101453.45;1792288;78;20252;-76
2021/04/11 04:16:42;;;;;;;;;;;;;;;0.46;57.85;101453.27;1823894;77;20628;-76
2021/04/11 04:19:26;;;;;;;;;;;;;;;0.57;57.61;101456.48;1827178;77;23307;-76
2021/04/11 04:22:06;;;;;;;;;;;;;;;0.67;57.41;101468.86;1824414;77;20898;-77
2021/04/11 04:24:50;;;;;;;;;;;;;;;0.78;57.25;101467.36;1802552;77;20224;-77
2021/04/11 04:27:51;;;;;;;;;;;;;;;0.85;57.06;101466.31;1806224;77;20216;-76
2021/04/11 04:30:25;;;;;;;;;;;;;;;0.95;56.89;101468.27;1827849;77;20215;-76
2021/04/11 04:33:07;;;;;;;;;;;;;;;1.05;56.77;101469.31;1824467;77;22608;-76
2021/04/11 04:35:42;;;;;;;;;;;;;;;1.14;56.76;101466.51;1816862;77;20535;-75
2021/04/11 04:38:31;;;;;;;;;;;;;;;1.25;56.78;101469.30;1825956;77;20493;-76
2021/04/11 04:41:11;;;;;;;;;;;;;;;1.33;56.80;101472.14;1828565;78;20744;-76
2021/04/11 04:43:57;;;;;;;;;;;;;;;1.43;56.76;101473.63;1817112;78;20250;-77
2021/04/11 04:46:36;;;;;;;;;;;;;;;1.51;56.67;101484.31;1831658;78;22988;-76
2021/04/11 04:49:14;;;;;;;;;;;;;;;1.58;56.53;101472.87;1831491;78;21272;-77
2021/04/11 04:51:51;;;;;;;;;;;;;;;1.67;56.56;101476.09;1832415;77;20614;-77
2021/04/11 04:54:41;;;;;;;;;;;;;;;1.78;56.52;101469.31;1831443;78;20243;-77
2021/04/11 04:57:18;;;;;;;;;;;;;;;1.89;56.41;101475.09;1826929;77;20494;-77
2021/04/11 05:00:07;;;;;;;;;;;;;;;2.01;56.25;101472.61;1794284;77;22849;-77
2021/04/11 05:02:49;;;;;;;;;;;;;;;2.11;56.13;101468.86;1824837;77;20382;-77
2021/04/11 05:05:17;;;;;;;;;;;;;;;2.24;56.19;101473.31;1825668;78;20228;-78
2021/04/11 05:08:00;;;;;;;;;;;;;;;2.37;56.25;101476.42;1826049;77;20868;-76
2021/04/11 05:10:34;;;;;;;;;;;;;;;2.50;56.16;101480.39;1830426;77;20538;-77
2021/04/11 05:13:22;;;;;;;;;;;;;;;2.63;55.99;101486.98;1829374;77;23182;-77
2021/04/11 05:15:54;;;;;;;;;;;;;;;2.77;55.87;101488.73;1829149;77;20227;-76
2021/04/11 05:18:38;;;;;;;;;;;;;;;2.91;55.56;101490.95;1823383;77;20241;-76
2021/04/11 05:21:17;;;;;;;;;;;;;;;3.08;55.26;101492.57;1817762;77;20525;-76
2021/04/11 05:23:55;;;;;;;;;;;;;;;3.27;55.21;101498.08;1829786;78;20510;-76
2021/04/11 05:26:45;;;;;;;;;;;;;;;3.41;54.94;101499.83;1795772;77;22069;-77
2021/04/11 05:29:27;;;;;;;;;;;;;;;3.58;54.81;101501.05;1822377;77;20834;-77
2021/04/11 05:31:55;;;;;;;;;;;;;;;3.74;54.61;101494.40;1823526;77;20255;-78
2021/04/11 05:34:24;;;;;;;;;;;;;;;3.93;54.16;101494.64;1823955;77;21204;-78
2021/04/11 05:36:58;;;;;;;;;;;;;;;4.09;53.59;101495.83;1822965;77;20235;-77
2021/04/11 05:39:38;;;;;;;;;;;;;;;4.25;53.30;101497.47;1819504;77;22058;-76
2021/04/11 05:42:21;;;;;;;;;;;;;;;4.39;52.87;101496.96;1794932;78;20793;-76
2021/04/11 05:45:14;;;;;;;;;;;;;;;4.58;52.84;101491.47;1832963;77;20553;-77
2021/04/11 05:48:01;;;;;;;;;;;;;;;4.81;52.60;101491.45;1831073;76;20241;-76
2021/04/11 05:50:48;;;;;;;;;;;;;;;5.05;51.67;101490.98;1830780;76;20241;-78
2021/04/11 05:53:21;;;;;;;;;;;;;;;5.25;51.15;101495.91;1829276;76;22236;-79
2021/04/11 05:55:52;;;;;;;;;;;;;;;5.48;50.38;101497.14;1830315;77;20245;-78
2021/04/11 05:58:23;;;;;;;;;;;;;;;5.71;49.99;101494.91;1820378;77;20274;-79
2021/04/11 06:00:53;;;;;;;;;;;;;;;5.93;49.57;101498.83;1838943;76;20283;-77
2021/04/11 06:03:22;;;;;;;;;;;;;;;6.06;49.18;101500.00;1835820;77;20257;-77
2021/04/11 06:06:15;;;;;;;;;;;;;;;6.21;49.04;101503.29;1833403;76;22063;-77
2021/04/11 06:09:03;;;;;;;;;;;;;;;6.36;48.47;101504.37;1829080;77;20452;-77
2021/04/11 06:11:39;;;;;;;;;;;;;;;6.57;47.80;101502.14;1830745;77;20392;-77
2021/04/11 06:14:18;;;;;;;;;;;;;;;6.75;47.36;101503.05;1809493;76;20616;-76
2021/04/11 06:16:46;;;;;;;;;;;;;;;6.91;46.75;101507.16;1831256;76;20290;-77
2021/04/11 06:19:13;;;;;;;;;;;;;;;7.04;46.17;101511.37;1831223;76;22895;-78
2021/04/11 06:21:50;;;;;;;;;;;;;;;7.13;45.85;101512.26;1835133;76;20635;-78
2021/04/11 06:24:27;;;;;;;;;;;;;;;7.21;44.61;101510.12;1839147;76;20217;-78
2021/04/11 06:27:32;;;;;;;;;;;;;;;7.31;43.91;101507.45;1838543;76;20300;-77
2021/04/11 06:30:25;;;;;;;;;;;;;;;7.41;43.80;101511.80;1835118;76;20211;-78
2021/04/11 06:32:56;;;;;;;;;;;;;;;7.51;42.38;101506.95;1831513;76;22105;-78
2021/04/11 06:35:27;;;;;;;;;;;;;;;7.62;42.13;101508.59;1833226;77;20373;-78
2021/04/11 06:37:57;;;;;;;;;;;;;;;7.74;41.43;101508.86;1834210;76;20266;-78
2021/04/11 06:40:36;;;;;;;;;;;;;;;7.85;40.52;101503.06;1817877;77;20302;-79
2021/04/11 06:43:16;;;;;;;;;;;;;;;7.90;39.80;101503.67;1829777;77;20244;-81
2021/04/11 06:45:46;;;;;;;;;;;;;;;7.97;38.44;101501.13;1827076;76;21228;-83
2021/04/11 06:48:22;;;;;;;;;;;;;;;8.07;38.75;101493.61;1824793;77;20454;-78
2021/04/11 06:51:13;;;;;;;;;;;;;;;8.18;37.82;101493.06;1818808;77;20239;-76
2021/04/11 06:53:59;;;;;;;;;;;;;;;8.30;37.11;101495.08;1811518;77;21526;-78
2021/04/11 06:56:36;;;;;;;;;;;;;;;8.42;37.09;101491.83;1804641;77;20278;-78
2021/04/11 06:59:41;;;;;;;;;;;;;;;8.55;36.50;101491.55;1823976;77;22492;-78
2021/04/11 07:02:46;;;;;;;;;;;;;;;8.71;36.47;101496.87;1825359;77;21060;-77
2021/04/11 07:05:35;;;;;;;;;;;;;;;8.91;36.03;101493.16;1817128;77;20220;-79
2021/04/11 07:08:29;;;;;;;;;;;;;;;9.13;35.49;101494.13;1823308;77;21111;-79
2021/04/11 07:11:17;;;;;;;;;;;;;;;9.29;34.58;101501.58;1799083;77;20220;-81
2021/04/11 07:13:54;;;;;;;;;;;;;;;9.45;34.47;101502.39;1828100;77;22042;-81
2021/04/11 07:16:30;;;;;;;;;;;;;;;9.65;34.63;101499.08;1823587;77;20287;-81
2021/04/11 07:19:15;;;;;;;;;;;;;;;9.83;33.66;101496.70;1851975;77;20252;-79
2021/04/11 07:22:03;;;;;;;;;;;;;;;9.96;33.59;101484.98;1820777;77;20890;-79
2021/04/11 07:24:40;;;;;;;;;;;;;;;10.10;32.72;101488.10;1816863;77;20657;-78
2021/04/11 07:27:28;;;;;;;;;;;;;;;10.25;33.26;101486.76;1800830;77;21891;-80
2021/04/11 07:29:59;;;;;;;;;;;;;;;10.39;33.23;101495.16;1821570;77;21454;-83
2021/04/11 07:32:55;;;;;;;;;;;;;;;10.52;32.44;101486.03;1821457;77;20255;-80
2021/04/11 07:35:45;;;;;;;;;;;;;;;10.59;31.92;101489.97;1841345;77;21238;-77
2021/04/11 07:38:34;;;;;;;;;;;;;;;10.69;31.15;101494.21;1791160;80;20225;-80
2021/04/11 07:41:34;;;;;;;;;;;;;;;10.76;31.47;101491.10;1699258;80;22532;-77
2021/04/11 07:44:27;;;;;;;;;;;;;;;10.81;30.66;101487.71;1727965;83;20393;-80
2021/04/11 07:47:04;;;;;;;;;;;;;;;10.83;31.25;101486.29;1772674;78;20478;-78
2021/04/11 07:49:51;;;;;;;;;;;;;;;10.96;30.82;101492.48;1797241;78;20814;-79
2021/04/11 07:52:47;;;;;;;;;;;;;;;11.07;30.92;101490.48;1810092;78;20247;-79
2021/04/11 07:55:22;;;;;;;;;;;;;;;11.18;30.47;101488.00;1808772;79;22323;-80
2021/04/11 07:58:02;;;;;;;;;;;;;;;11.27;31.02;101479.95;1760318;81;20877;-83
2021/04/11 08:00:50;;;;;;;;;;;;;;;11.37;30.57;101483.22;1805754;79;20213;-81
2021/04/11 08:03:39;;;;;;;;;;;;;;;11.48;30.61;101487.80;1703653;81;20730;-83
2021/04/11 08:06:26;;;;;;;;;;;;;;;11.57;30.08;101483.23;1750908;81;20236;-79
2021/04/11 08:09:12;;;;;;;;;;;;;;;11.64;30.79;101483.21;1767032;80;21891;-77
2021/04/11 08:11:59;;;;;;;;;;;;;;;11.73;30.79;101477.31;1678790;80;20329;-79
2021/04/11 08:14:39;;;;;;;;;;;;;;;11.82;29.87;101475.88;1769152;79;20268;-78
2021/04/11 08:17:14;;;;;;;;;;;;;;;11.84;29.64;101463.86;1775365;79;20720;-75
2021/04/11 08:19:49;;;;;;;;;;;;;;;11.80;29.60;101465.88;1758616;80;20299;-77
2021/04/11 08:22:35;;;;;;;;;;;;;;;11.75;29.80;101462.64;1712664;79;22989;-79
2021/04/11 08:25:22;;;;;;;;;;;;;;;11.80;30.23;101465.03;1734064;81;20255;-75
2021/04/11 08:28:03;;;;;;;;;;;;;;;11.94;30.05;101463.13;1764055;79;20263;-83
2021/04/11 08:30:40;;;;;;;;;;;;;;;12.07;29.38;101461.84;1762327;80;21348;-81
2021/04/11 08:33:29;;;;;;;;;;;;;;;12.15;29.98;101453.34;1766032;79;20216;-79
2021/04/11 08:36:09;;;;;;;;;;;;;;;12.26;28.91;101446.38;1766417;79;22954;-82
2021/04/11 08:39:02;;;;;;;;;;;;;;;12.28;29.04;101451.09;1769253;79;20654;-81
2021/04/11 08:42:10;;;;;;;;;;;;;;;12.36;29.43;101443.94;1766815;79;20229;-78
2021/04/11 08:45:05;;;;;;;;;;;;;;;12.56;29.64;101450.01;1734571;79;21004;-77
2021/04/11 08:47:56;;;;;;;;;;;;;;;12.81;29.93;101450.42;1767159;81;20280;-78
2021/04/11 08:50:46;;;;;;;;;;;;;;;12.99;29.49;101444.27;1766721;79;22626;-78
2021/04/11 08:53:32;;;;;;;;;;;;;;;13.09;28.76;101438.66;1773851;80;21092;-75
2021/04/11 08:56:08;;;;;;;;;;;;;;;13.12;28.95;101439.79;1761935;80;20215;-83
2021/04/11 08:58:51;;;;;;;;;;;;;;;13.22;29.00;101439.12;1712089;81;21394;-81
2021/04/11 09:01:37;;;;;;;;;;;;;;;13.27;28.78;101436.98;1764638;79;20268;-79
2021/04/11 09:04:28;;;;;;;;;;;;;;;13.26;27.97;101432.64;1764247;79;22522;-79
2021/04/11 09:07:25;;;;;;;;;;;;;;;13.25;28.69;101430.95;1755378;81;20671;-81
2021/04/11 09:10:18;;;;;;;;;;;;;;;13.32;28.92;101430.88;1767498;79;20295;-81
2021/04/11 09:12:54;;;;;;;;;;;;;;;13.49;29.20;101439.73;1766301;81;20491;-77
2021/04/11 09:15:45;;;;;;;;;;;;;;;13.60;28.44;101430.48;1764713;79;20673;-76
2021/04/11 09:18:36;;;;;;;;;;;;;;;13.64;28.20;101425.33;1739802;79;21972;-78
2021/04/11 09:21:26;;;;;;;;;;;;;;;13.63;27.48;101419.65;1761197;79;20307;-80
2021/04/11 09:24:06;;;;;;;;;;;;;;;13.53;28.20;101416.00;1738115;79;20557;-77
2021/04/11 09:26:52;;;;;;;;;;;;;;;13.67;29.17;101414.45;1765653;79;20466;-80
2021/04/11 09:29:38;;;;;;;;;;;;;;;13.90;29.10;101417.19;1760923;79;20271;-80
2021/04/11 09:32:22;;;;;;;;;;;;;;;14.13;28.69;101412.27;1734140;79;22068;-83
2021/04/11 09:35:09;;;;;;;;;;;;;;;14.18;27.27;101403.43;1762939;81;20352;-75
2021/04/11 09:37:59;;;;;;;;;;;;;;;14.25;28.31;101403.33;1763601;79;20294;-82
2021/04/11 09:40:36;;;;;;;;;;;;;;;14.38;27.63;101403.23;1763049;81;20523;-82
2021/04/11 09:43:08;;;;;;;;;;;;;;;14.43;27.85;101394.39;1765886;81;20268;-79
2021/04/11 09:45:54;;;;;;;;;;;;;;;14.57;27.45;101394.19;1746872;81;22081;-79
2021/04/11 09:48:34;;;;;;;;;;;;;;;14.65;26.96;101389.55;1728640;81;21657;-77
2021/04/11 09:51:11;;;;;;;;;;;;;;;14.83;28.02;101386.74;1740198;82;20468;-78
2021/04/11 09:53:51;;;;;;;;;;;;;;;15.10;26.85;101382.80;1740098;81;20301;-77
2021/04/11 09:56:25;;;;;;;;;;;;;;;15.30;26.26;101384.66;1730255;82;20226;-80
2021/04/11 09:59:16;;;;;;;;;;;;;;;15.35;25.54;101378.48;1741152;82;22171;-75
2021/04/11 10:02:21;;;;;;;;;;;;;;;15.27;26.01;101376.94;1741292;81;20357;-77
2021/04/11 10:04:58;;;;;;;;;;;;;;;15.46;27.11;101376.24;1737156;81;20194;-78
2021/04/11 10:07:44;;;;;;;;;;;;;;;15.86;26.05;101378.22;1695613;82;20206;-77
2021/04/11 10:10:31;;;;;;;;;;;;;;;16.06;25.10;101369.34;1741608;81;20172;-76
2021/04/11 10:13:11;;;;;;;;;;;;;;;16.21;26.11;101368.03;1741160;82;23090;-76
2021/04/11 10:16:01;;;;;;;;;;;;;;;16.49;26.19;101372.23;1739302;81;20370;-75
2021/04/11 10:18:35;;;;;;;;;;;;;;;16.78;25.37;101361.67;1740339;82;20222;-76
2021/04/11 10:21:27;;;;;;;;;;;;;;;16.86;24.81;101361.34;1727048;81;20316;-77
2021/04/11 10:24:27;;;;;;;;;;;;;;;16.85;24.67;101364.99;1730049;81;20405;-78
2021/04/11 10:27:09;;;;;;;;;;;;;;;16.91;24.00;101360.94;1740114;82;22831;-79
2021/04/11 10:29:38;;;;;;;;;;;;;;;17.04;24.93;101366.84;1741666;82;20223;-80
2021/04/11 10:32:27;;;;;;;;;;;;;;;17.11;23.24;101362.64;1713203;82;20215;-78
2021/04/11 10:35:06;;;;;;;;;;;;;;;17.19;24.44;101373.95;1742490;81;20439;-77
2021/04/11 10:37:52;;;;;;;;;;;;;;;17.48;24.05;101363.26;1740599;81;20273;-78
2021/04/11 10:40:43;;;;;;;;;;;;;;;17.57;23.14;101356.22;1741095;81;21902;-78
2021/04/11 10:43:42;;;;;;;;;;;;;;;17.62;23.42;101351.27;1739636;81;20367;-77
2021/04/11 10:46:24;;;;;;;;;;;;;;;17.74;24.10;101348.81;1742207;79;20226;-73
2021/04/11 10:49:13;;;;;;;;;;;;;;;17.99;24.06;101344.17;1771433;80;20755;-80
2021/04/11 10:51:47;;;;;;;;;;;;;;;18.12;23.39;101339.82;1738980;80;20208;-81
2021/04/11 10:54:35;;;;;;;;;;;;;;;18.25;23.45;101349.70;1751272;79;22317;-84
2021/04/11 10:57:15;;;;;;;;;;;;;;;18.31;21.65;101351.77;1765811;81;20479;-80
2021/04/11 11:00:14;;;;;;;;;;;;;;;18.10;22.34;101350.33;1773863;80;20218;-82
2021/04/11 11:03:02;;;;;;;;;;;;;;;18.15;22.09;101346.73;1765453;79;20319;-77
2021/04/11 11:05:47;;;;;;;;;;;;;;;18.19;22.47;101355.63;1755321;79;20240;-78
2021/04/11 11:08:25;;;;;;;;;;;;;;;18.30;23.47;101351.92;1761054;80;22084;-79
2021/04/11 11:11:21;;;;;;;;;;;;;;;18.63;23.60;101339.79;1764016;79;20373;-77
2021/04/11 11:14:09;;;;;;;;;;;;;;;18.81;21.22;101337.98;1769875;79;20220;-73
2021/04/11 11:17:07;;;;;;;;;;;;;;;18.89;22.59;101326.52;1770521;79;20458;-76
2021/04/11 11:20:02;;;;;;;;;;;;;;;19.09;22.09;101324.03;1766418;80;20244;-79
2021/04/11 11:22:43;;;;;;;;;;;;;;;19.26;22.55;101323.67;1768078;80;22353;-76
2021/04/11 11:25:20;;;;;;;;;;;;;;;19.44;22.26;101327.17;1757725;79;20498;-77
2021/04/11 11:28:03;;;;;;;;;;;;;;;19.34;20.52;101323.75;1750001;79;20209;-76
2021/04/11 11:30:57;;;;;;;;;;;;;;;19.13;22.30;101321.91;1763521;80;20477;-74
2021/04/11 11:33:31;;;;;;;;;;;;;;;19.37;22.46;101318.06;1764329;80;20240;-73
2021/04/11 11:36:29;;;;;;;;;;;;;;;19.52;22.10;101314.84;1766986;80;22768;-73
2021/04/11 11:39:13;;;;;;;;;;;;;;;19.63;21.83;101311.42;1757904;79;20296;-78
2021/04/11 11:41:59;;;;;;;;;;;;;;;19.73;20.62;101303.27;1760061;79;20299;-73
2021/04/11 11:44:34;;;;;;;;;;;;;;;19.70;20.79;101300.92;1766018;79;20321;-74
2021/04/11 11:47:18;;;;;;;;;;;;;;;19.84;22.42;101303.50;1766836;80;20215;-72
2021/04/11 11:50:07;;;;;;;;;;;;;;;20.12;21.65;101294.75;1769001;79;22025;-76
2021/04/11 11:52:48;;;;;;;;;;;;;;;20.34;22.04;101296.84;1765265;80;21103;-74
2021/04/11 11:55:28;;;;;;;;;;;;;;;20.55;20.86;101289.20;1759520;79;20212;-75
2021/04/11 11:58:15;;;;;;;;;;;;;;;20.74;20.89;101280.52;1776978;79;20471;-74
2021/04/11 12:00:49;;;;;;;;;;;;;;;20.89;20.60;101274.84;1745152;79;20495;-74
2021/04/11 12:03:34;;;;;;;;;;;;;;;20.83;19.33;101278.17;1753937;81;21901;-77
2021/04/11 12:06:13;;;;;;;;;;;;;;;20.63;19.64;101271.44;1769396;79;20295;-75
2021/04/11 12:09:03;;;;;;;;;;;;;;;20.53;20.23;101270.25;1754067;79;20269;-75
2021/04/11 12:11:43;;;;;;;;;;;;;;;20.65;20.87;101270.77;1780343;79;20297;-74
2021/04/11 12:14:23;;;;;;;;;;;;;;;20.88;20.27;101264.27;1773722;79;20275;-79
2021/04/11 12:17:05;;;;;;;;;;;;;;;20.97;18.99;101253.36;1752659;80;21866;-77
2021/04/11 12:19:41;;;;;;;;;;;;;;;20.65;19.23;101254.66;1742670;81;21272;-74
2021/04/11 12:22:19;;;;;;;;;;;;;;;20.53;19.73;101254.14;1741409;80;20656;-78
2021/04/11 12:24:59;;;;;;;;;;;;;;;20.53;20.54;101256.33;1775549;78;20625;-75
2021/04/11 12:27:33;;;;;;;;;;;;;;;20.88;21.25;101251.67;1785960;78;20310;-74
2021/04/11 12:30:01;;;;;;;;;;;;;;;21.34;21.00;101244.80;1784365;79;21901;-74
2021/04/11 12:32:37;;;;;;;;;;;;;;;21.76;20.25;101249.04;1780558;79;20279;-74
2021/04/11 12:35:23;;;;;;;;;;;;;;;22.09;19.69;101242.20;1777221;79;20274;-78
2021/04/11 12:38:14;;;;;;;;;;;;;;;22.09;19.20;101243.04;1728526;81;21339;-75
2021/04/11 12:40:47;;;;;;;;;;;;;;;22.19;19.18;101241.47;1757643;80;20298;-74
2021/04/11 12:43:42;;;;;;;;;;;;;;;22.45;18.94;101239.81;1803196;78;22056;-75
2021/04/11 12:46:26;;;;;;;;;;;;;;;22.51;17.70;101235.08;1800174;78;20271;-73
2021/04/11 12:49:10;;;;;;;;;;;;;;;22.30;18.54;101231.68;1762201;79;20269;-77
2021/04/11 12:51:47;;;;;;;;;;;;;;;22.14;17.79;101232.60;1753682;80;21169;-75
2021/04/11 12:54:27;;;;;;;;;;;;;;;21.90;17.66;101221.91;1754798;80;20354;-76
2021/04/11 12:57:00;;;;;;;;;;;;;;;21.83;18.96;101219.61;1742887;80;21959;-80
2021/04/11 12:59:40;;;;;;;;;;;;;;;21.93;18.32;101209.48;1763657;80;20661;-80
2021/04/11 13:02:15;;;;;;;;;;;;;;;21.90;18.84;101206.61;1770442;80;20453;-83
2021/04/11 13:04:46;;;;;;;;;;;;;;;22.06;19.02;101210.25;1773571;79;21459;-81
2021/04/11 13:07:25;;;;;;;;;;;;;;;21.99;18.10;101212.28;1773033;79;20268;-80
2021/04/11 13:10:27;;;;;;;;;;;;;;;21.87;19.41;101212.86;1777048;80;22060;-80
2021/04/11 13:13:01;;;;;;;;;;;;;;;22.13;19.13;101212.09;1761122;80;20550;-80
2021/04/11 13:15:36;;;;;;;;;;;;;;;22.33;18.25;101207.60;1771137;79;20228;-77
2021/04/11 13:18:30;;;;;;;;;;;;;;;22.11;18.55;101206.05;1752920;80;20307;-76
2021/04/11 13:21:05;;;;;;;;;;;;;;;22.23;18.90;101216.73;1776947;80;20211;-78
2021/04/11 13:23:35;;;;;;;;;;;;;;;22.66;18.73;101213.06;1774677;79;22514;-83
2021/04/11 13:26:23;;;;;;;;;;;;;;;22.71;17.23;101212.03;1776110;80;20530;-83
2021/04/11 13:29:09;;;;;;;;;;;;;;;22.16;17.55;101209.55;1774802;80;20501;-81
2021/04/11 13:31:50;;;;;;;;;;;;;;;22.00;17.35;101207.27;1775929;80;20490;-78
2021/04/11 13:34:39;;;;;;;;;;;;;;;21.51;17.83;101196.35;1773635;79;20243;-82
2021/04/11 13:37:09;;;;;;;;;;;;;;;21.39;18.76;101195.89;1742876;81;21854;-80
2021/04/11 13:39:39;;;;;;;;;;;;;;;21.85;18.39;101184.80;1771204;79;20235;-86
2021/04/11 13:42:16;;;;;;;;;;;;;;;22.20;18.45;101184.81;1773043;79;20208;-81